CYZY weather

Mackenzie Airport
Mackenzie, British Columbia, Canada

Public forecast

Using degrees Celsius for public forecast. Weather courtesy of forecast.io.

METAR (pilot weather report)

Retrieved 2019/08/26 08:00 UTC (43 minutes ago):

CYZY 260800Z AUTO 00000KT 9SM CLR 05/05 A3015 RMK SLP226

TAF (pilot weather forecast)

Retrieved 2019/08/26 07:00 UTC (2 hours ago):

TAF CYZY 260639Z 2607/2609 VRB03KT P6SM FEW060 RMK FCST BASED ON AUTO OBS. NXT FCST WILL BE ISSUED AT 261445Z